Scottsburg, Indiana
Current Conditions -  °F | °C
As of 10:53 AM on Saturday 22 Nov 2014 (Local Time) from KLOU Reporting Station
Scattered Clouds Scattered Clouds  
Wind Chill: 55°   Ceiling: Unl
Heat Index: 55°   Visibility: 10mi
Dew Point: 34°   Wind: 14mph
Humidity: 45%   Direction: 180°S
Pressure: 30.27"   Gusts: NA
Location:  38.69°N, 85.77°W
Report Text: KLOU 221553Z 18012KT 10SM FEW080 SCT100 13/01 A3027 RMK AO2 RAB1458E13 SLP251 P0000 T01280011
Loading
Personal Weather Stations






























Interactive Weather Map New forecast layout! Learn more

10-Day Weather Forecast

Advertisements
Track Severe Weather on mobile